sensor_id;sensor_type;location;lat;lon;timestamp;temperature;humidity
71039;SHT30;58692;43.212;27.908;2022-07-04T00:01:06;21.95;62.37
71039;SHT30;58692;43.212;27.908;2022-07-04T00:03:31;21.88;62.47
71039;SHT30;58692;43.212;27.908;2022-07-04T00:05:57;21.82;62.50
71039;SHT30;58692;43.212;27.908;2022-07-04T00:08:22;21.85;62.32
71039;SHT30;58692;43.212;27.908;2022-07-04T00:10:48;21.85;62.30
71039;SHT30;58692;43.212;27.908;2022-07-04T00:13:13;21.92;62.17
71039;SHT30;58692;43.212;27.908;2022-07-04T00:15:39;21.93;62.13
71039;SHT30;58692;43.212;27.908;2022-07-04T00:18:05;21.89;62.17
71039;SHT30;58692;43.212;27.908;2022-07-04T00:20:31;21.95;61.95
71039;SHT30;58692;43.212;27.908;2022-07-04T00:22:56;21.96;62.05
71039;SHT30;58692;43.212;27.908;2022-07-04T00:25:22;21.99;62.05
71039;SHT30;58692;43.212;27.908;2022-07-04T00:27:47;22.00;62.04
71039;SHT30;58692;43.212;27.908;2022-07-04T00:30:13;22.00;62.08
71039;SHT30;58692;43.212;27.908;2022-07-04T00:32:38;21.97;62.17
71039;SHT30;58692;43.212;27.908;2022-07-04T00:35:06;21.90;62.22
71039;SHT30;58692;43.212;27.908;2022-07-04T00:37:32;21.85;62.26
71039;SHT30;58692;43.212;27.908;2022-07-04T00:39:58;21.90;62.30
71039;SHT30;58692;43.212;27.908;2022-07-04T00:42:24;21.90;62.55
71039;SHT30;58692;43.212;27.908;2022-07-04T00:44:49;21.92;62.49
71039;SHT30;58692;43.212;27.908;2022-07-04T00:47:15;21.92;62.46
71039;SHT30;58692;43.212;27.908;2022-07-04T00:49:40;21.88;62.25
71039;SHT30;58692;43.212;27.908;2022-07-04T00:52:06;21.86;62.29
71039;SHT30;58692;43.212;27.908;2022-07-04T00:54:32;21.81;62.37
71039;SHT30;58692;43.212;27.908;2022-07-04T00:56:59;21.85;62.29
71039;SHT30;58692;43.212;27.908;2022-07-04T00:59:25;21.82;62.33
71039;SHT30;58692;43.212;27.908;2022-07-04T01:01:51;21.74;62.49
71039;SHT30;58692;43.212;27.908;2022-07-04T01:04:17;21.71;62.68
71039;SHT30;58692;43.212;27.908;2022-07-04T01:06:44;21.74;62.65
71039;SHT30;58692;43.212;27.908;2022-07-04T01:09:11;21.78;62.36
71039;SHT30;58692;43.212;27.908;2022-07-04T01:11:37;21.75;62.46
71039;SHT30;58692;43.212;27.908;2022-07-04T01:14:03;21.78;62.32
71039;SHT30;58692;43.212;27.908;2022-07-04T01:16:31;21.62;62.78
71039;SHT30;58692;43.212;27.908;2022-07-04T01:18:56;21.71;62.39
71039;SHT30;58692;43.212;27.908;2022-07-04T01:21:22;21.74;62.28
71039;SHT30;58692;43.212;27.908;2022-07-04T01:23:47;21.79;62.07
71039;SHT30;58692;43.212;27.908;2022-07-04T01:26:13;21.76;62.03
71039;SHT30;58692;43.212;27.908;2022-07-04T01:28:39;21.69;62.00
71039;SHT30;58692;43.212;27.908;2022-07-04T01:31:05;21.59;62.28
71039;SHT30;58692;43.212;27.908;2022-07-04T01:33:31;21.61;62.43
71039;SHT30;58692;43.212;27.908;2022-07-04T01:35:57;21.45;62.65
71039;SHT30;58692;43.212;27.908;2022-07-04T01:38:22;21.38;62.87
71039;SHT30;58692;43.212;27.908;2022-07-04T01:40:48;21.22;63.19
71039;SHT30;58692;43.212;27.908;2022-07-04T01:43:13;21.28;62.82
71039;SHT30;58692;43.212;27.908;2022-07-04T01:45:39;20.98;63.70
71039;SHT30;58692;43.212;27.908;2022-07-04T01:48:07;21.12;63.42
71039;SHT30;58692;43.212;27.908;2022-07-04T01:50:33;21.05;63.77
71039;SHT30;58692;43.212;27.908;2022-07-04T01:52:59;21.11;63.87
71039;SHT30;58692;43.212;27.908;2022-07-04T01:55:25;21.07;64.16
71039;SHT30;58692;43.212;27.908;2022-07-04T01:57:50;20.90;64.29
71039;SHT30;58692;43.212;27.908;2022-07-04T02:00:16;20.97;63.84
71039;SHT30;58692;43.212;27.908;2022-07-04T02:02:58;20.79;63.84
71039;SHT30;58692;43.212;27.908;2022-07-04T02:05:24;20.70;64.10
71039;SHT30;58692;43.212;27.908;2022-07-04T02:07:49;20.77;63.87
71039;SHT30;58692;43.212;27.908;2022-07-04T02:10:15;20.74;63.76
71039;SHT30;58692;43.212;27.908;2022-07-04T02:12:41;20.83;63.54
71039;SHT30;58692;43.212;27.908;2022-07-04T02:15:21;20.81;63.51
71039;SHT30;58692;43.212;27.908;2022-07-04T02:17:47;20.85;63.41
71039;SHT30;58692;43.212;27.908;2022-07-04T02:20:13;20.79;63.42
71039;SHT30;58692;43.212;27.908;2022-07-04T02:22:38;20.79;63.11
71039;SHT30;58692;43.212;27.908;2022-07-04T02:25:04;20.73;63.12
71039;SHT30;58692;43.212;27.908;2022-07-04T02:27:30;20.70;63.22
71039;SHT30;58692;43.212;27.908;2022-07-04T02:29:55;20.73;63.27
71039;SHT30;58692;43.212;27.908;2022-07-04T02:32:21;20.64;63.64
71039;SHT30;58692;43.212;27.908;2022-07-04T02:34:46;20.61;63.82
71039;SHT30;58692;43.212;27.908;2022-07-04T02:37:12;20.57;64.19
71039;SHT30;58692;43.212;27.908;2022-07-04T02:39:38;20.50;65.18
71039;SHT30;58692;43.212;27.908;2022-07-04T02:42:04;20.53;65.89
71039;SHT30;58692;43.212;27.908;2022-07-04T02:44:29;20.43;66.83
71039;SHT30;58692;43.212;27.908;2022-07-04T02:46:55;20.47;67.27
71039;SHT30;58692;43.212;27.908;2022-07-04T02:49:21;20.43;68.09
71039;SHT30;58692;43.212;27.908;2022-07-04T02:51:46;20.40;68.61
71039;SHT30;58692;43.212;27.908;2022-07-04T02:54:12;20.46;68.61
71039;SHT30;58692;43.212;27.908;2022-07-04T02:56:38;20.41;68.94
71039;SHT30;58692;43.212;27.908;2022-07-04T02:59:03;20.50;68.87
71039;SHT30;58692;43.212;27.908;2022-07-04T03:01:29;20.43;68.86
71039;SHT30;58692;43.212;27.908;2022-07-04T03:03:54;20.47;68.91
71039;SHT30;58692;43.212;27.908;2022-07-04T03:06:20;20.47;68.96
71039;SHT30;58692;43.212;27.908;2022-07-04T03:08:45;20.59;68.83
71039;SHT30;58692;43.212;27.908;2022-07-04T03:11:11;20.57;68.91
71039;SHT30;58692;43.212;27.908;2022-07-04T03:13:38;20.53;68.66
71039;SHT30;58692;43.212;27.908;2022-07-04T03:16:04;20.66;68.08
71039;SHT30;58692;43.212;27.908;2022-07-04T03:18:30;20.67;67.51
71039;SHT30;58692;43.212;27.908;2022-07-04T03:20:56;20.79;67.19
71039;SHT30;58692;43.212;27.908;2022-07-04T03:23:21;20.30;68.37
71039;SHT30;58692;43.212;27.908;2022-07-04T03:25:47;20.63;67.59
71039;SHT30;58692;43.212;27.908;2022-07-04T03:28:12;20.81;66.88
71039;SHT30;58692;43.212;27.908;2022-07-04T03:30:38;20.93;66.12
71039;SHT30;58692;43.212;27.908;2022-07-04T03:33:03;20.74;66.29
71039;SHT30;58692;43.212;27.908;2022-07-04T03:35:29;20.91;65.26
71039;SHT30;58692;43.212;27.908;2022-07-04T03:37:55;21.10;65.05
71039;SHT30;58692;43.212;27.908;2022-07-04T03:40:21;21.37;64.07
71039;SHT30;58692;43.212;27.908;2022-07-04T03:42:47;21.54;62.99
71039;SHT30;58692;43.212;27.908;2022-07-04T03:45:13;21.75;62.48
71039;SHT30;58692;43.212;27.908;2022-07-04T03:47:38;22.12;61.27
71039;SHT30;58692;43.212;27.908;2022-07-04T03:50:05;22.63;59.54
71039;SHT30;58692;43.212;27.908;2022-07-04T03:52:31;22.94;58.19
71039;SHT30;58692;43.212;27.908;2022-07-04T03:54:56;23.16;57.08
71039;SHT30;58692;43.212;27.908;2022-07-04T03:57:22;23.25;56.63
71039;SHT30;58692;43.212;27.908;2022-07-04T03:59:47;23.35;56.26
71039;SHT30;58692;43.212;27.908;2022-07-04T04:02:13;23.32;56.14
71039;SHT30;58692;43.212;27.908;2022-07-04T04:04:38;23.23;56.29
71039;SHT30;58692;43.212;27.908;2022-07-04T04:07:19;23.46;55.72
71039;SHT30;58692;43.212;27.908;2022-07-04T04:09:45;23.62;55.36
71039;SHT30;58692;43.212;27.908;2022-07-04T04:12:10;23.60;55.12
71039;SHT30;58692;43.212;27.908;2022-07-04T04:14:36;23.80;54.44
71039;SHT30;58692;43.212;27.908;2022-07-04T04:17:02;24.04;54.10
71039;SHT30;58692;43.212;27.908;2022-07-04T04:19:28;24.23;53.29
71039;SHT30;58692;43.212;27.908;2022-07-04T04:21:54;24.44;52.92
71039;SHT30;58692;43.212;27.908;2022-07-04T04:24:19;24.41;53.25
71039;SHT30;58692;43.212;27.908;2022-07-04T04:26:45;24.75;52.63
71039;SHT30;58692;43.212;27.908;2022-07-04T04:29:10;24.89;52.36
71039;SHT30;58692;43.212;27.908;2022-07-04T04:31:36;25.04;52.02
71039;SHT30;58692;43.212;27.908;2022-07-04T04:34:01;25.23;51.75
71039;SHT30;58692;43.212;27.908;2022-07-04T04:36:27;25.51;51.22
71039;SHT30;58692;43.212;27.908;2022-07-04T04:38:53;25.71;51.01
71039;SHT30;58692;43.212;27.908;2022-07-04T04:41:18;25.65;50.74
71039;SHT30;58692;43.212;27.908;2022-07-04T04:43:44;25.70;50.47
71039;SHT30;58692;43.212;27.908;2022-07-04T04:46:09;25.96;50.15
71039;SHT30;58692;43.212;27.908;2022-07-04T04:48:35;25.67;50.65
71039;SHT30;58692;43.212;27.908;2022-07-04T04:51:01;26.01;49.74
71039;SHT30;58692;43.212;27.908;2022-07-04T04:53:26;26.05;49.83
71039;SHT30;58692;43.212;27.908;2022-07-04T04:55:53;26.21;49.33
71039;SHT30;58692;43.212;27.908;2022-07-04T04:58:19;26.27;49.42
71039;SHT30;58692;43.212;27.908;2022-07-04T05:00:45;26.51;48.70
71039;SHT30;58692;43.212;27.908;2022-07-04T05:03:11;26.69;48.32
71039;SHT30;58692;43.212;27.908;2022-07-04T05:05:37;26.93;48.09
71039;SHT30;58692;43.212;27.908;2022-07-04T05:08:03;26.95;48.04
71039;SHT30;58692;43.212;27.908;2022-07-04T05:10:28;27.26;47.53
71039;SHT30;58692;43.212;27.908;2022-07-04T05:12:54;27.33;47.37
71039;SHT30;58692;43.212;27.908;2022-07-04T05:15:26;27.53;47.01
71039;SHT30;58692;43.212;27.908;2022-07-04T05:17:52;27.24;47.38
71039;SHT30;58692;43.212;27.908;2022-07-04T05:20:17;27.76;46.31
71039;SHT30;58692;43.212;27.908;2022-07-04T05:22:49;27.68;46.30
71039;SHT30;58692;43.212;27.908;2022-07-04T05:25:15;28.01;45.95
71039;SHT30;58692;43.212;27.908;2022-07-04T05:27:41;28.48;45.19
71039;SHT30;58692;43.212;27.908;2022-07-04T05:30:10;28.31;45.59
71039;SHT30;58692;43.212;27.908;2022-07-04T05:32:39;28.31;45.63
71039;SHT30;58692;43.212;27.908;2022-07-04T05:35:06;29.03;44.69
71039;SHT30;58692;43.212;27.908;2022-07-04T05:37:32;28.93;44.75
71039;SHT30;58692;43.212;27.908;2022-07-04T05:39:58;29.30;44.21
71039;SHT30;58692;43.212;27.908;2022-07-04T05:42:25;29.07;44.71
71039;SHT30;58692;43.212;27.908;2022-07-04T05:44:50;28.31;46.02
71039;SHT30;58692;43.212;27.908;2022-07-04T05:47:16;29.04;44.97
71039;SHT30;58692;43.212;27.908;2022-07-04T05:49:42;29.47;44.61
71039;SHT30;58692;43.212;27.908;2022-07-04T05:52:08;29.27;44.85
71039;SHT30;58692;43.212;27.908;2022-07-04T05:54:34;29.75;44.25
71039;SHT30;58692;43.212;27.908;2022-07-04T05:57:12;29.30;45.31
71039;SHT30;58692;43.212;27.908;2022-07-04T05:59:37;28.60;46.51
71039;SHT30;58692;43.212;27.908;2022-07-04T06:02:03;28.89;46.84
71039;SHT30;58692;43.212;27.908;2022-07-04T06:04:29;29.51;45.50
71039;SHT30;58692;43.212;27.908;2022-07-04T06:06:55;29.30;46.24
71039;SHT30;58692;43.212;27.908;2022-07-04T06:09:20;29.00;47.07
71039;SHT30;58692;43.212;27.908;2022-07-04T06:11:46;28.96;47.23
71039;SHT30;58692;43.212;27.908;2022-07-04T06:14:12;29.14;47.33
71039;SHT30;58692;43.212;27.908;2022-07-04T06:16:37;29.46;47.03
71039;SHT30;58692;43.212;27.908;2022-07-04T06:19:04;29.54;46.78
71039;SHT30;58692;43.212;27.908;2022-07-04T06:21:29;29.07;47.53
71039;SHT30;58692;43.212;27.908;2022-07-04T06:23:55;29.35;47.32
71039;SHT30;58692;43.212;27.908;2022-07-04T06:26:24;29.09;48.01
71039;SHT30;58692;43.212;27.908;2022-07-04T06:28:49;29.02;47.98
71039;SHT30;58692;43.212;27.908;2022-07-04T06:31:15;29.26;47.26
71039;SHT30;58692;43.212;27.908;2022-07-04T06:33:42;29.03;47.85
71039;SHT30;58692;43.212;27.908;2022-07-04T06:36:23;29.53;46.18
71039;SHT30;58692;43.212;27.908;2022-07-04T06:38:49;29.14;46.98
71039;SHT30;58692;43.212;27.908;2022-07-04T06:41:15;29.24;47.02
71039;SHT30;58692;43.212;27.908;2022-07-04T06:43:41;29.00;47.87
71039;SHT30;58692;43.212;27.908;2022-07-04T06:46:06;28.83;47.90
71039;SHT30;58692;43.212;27.908;2022-07-04T06:48:32;28.86;47.86
71039;SHT30;58692;43.212;27.908;2022-07-04T06:50:57;28.87;48.20
71039;SHT30;58692;43.212;27.908;2022-07-04T06:53:23;28.89;48.36
71039;SHT30;58692;43.212;27.908;2022-07-04T06:55:48;29.00;47.69
71039;SHT30;58692;43.212;27.908;2022-07-04T06:58:14;29.33;47.15
71039;SHT30;58692;43.212;27.908;2022-07-04T07:00:40;28.97;47.85
71039;SHT30;58692;43.212;27.908;2022-07-04T07:03:06;28.89;48.40
71039;SHT30;58692;43.212;27.908;2022-07-04T07:05:33;28.48;49.30
71039;SHT30;58692;43.212;27.908;2022-07-04T07:07:59;28.60;49.14
71039;SHT30;58692;43.212;27.908;2022-07-04T07:10:25;29.35;47.73
71039;SHT30;58692;43.212;27.908;2022-07-04T07:12:52;29.31;47.68
71039;SHT30;58692;43.212;27.908;2022-07-04T07:15:17;28.95;48.97
71039;SHT30;58692;43.212;27.908;2022-07-04T07:17:44;29.13;48.78
71039;SHT30;58692;43.212;27.908;2022-07-04T07:20:10;29.29;48.23
71039;SHT30;58692;43.212;27.908;2022-07-04T07:22:39;29.70;47.88
71039;SHT30;58692;43.212;27.908;2022-07-04T07:25:05;29.85;47.46
71039;SHT30;58692;43.212;27.908;2022-07-04T07:27:30;29.26;49.00
71039;SHT30;58692;43.212;27.908;2022-07-04T07:29:56;29.74;48.21
71039;SHT30;58692;43.212;27.908;2022-07-04T07:32:21;28.87;49.32
71039;SHT30;58692;43.212;27.908;2022-07-04T07:34:47;29.21;49.23
71039;SHT30;58692;43.212;27.908;2022-07-04T07:37:12;29.47;48.60
71039;SHT30;58692;43.212;27.908;2022-07-04T07:39:38;28.92;50.33
71039;SHT30;58692;43.212;27.908;2022-07-04T07:42:04;29.20;48.58
71039;SHT30;58692;43.212;27.908;2022-07-04T07:44:30;29.02;50.45
71039;SHT30;58692;43.212;27.908;2022-07-04T07:46:55;29.02;50.63
71039;SHT30;58692;43.212;27.908;2022-07-04T07:49:21;29.33;49.69
71039;SHT30;58692;43.212;27.908;2022-07-04T07:51:49;29.51;49.42
71039;SHT30;58692;43.212;27.908;2022-07-04T07:54:18;29.61;48.83
71039;SHT30;58692;43.212;27.908;2022-07-04T07:56:44;30.06;48.24
71039;SHT30;58692;43.212;27.908;2022-07-04T07:59:10;30.56;47.05
71039;SHT30;58692;43.212;27.908;2022-07-04T08:01:38;30.46;47.21
71039;SHT30;58692;43.212;27.908;2022-07-04T08:04:03;30.04;47.49
71039;SHT30;58692;43.212;27.908;2022-07-04T08:06:44;30.01;48.01
71039;SHT30;58692;43.212;27.908;2022-07-04T08:09:10;30.18;48.19
71039;SHT30;58692;43.212;27.908;2022-07-04T08:11:36;30.67;46.79
71039;SHT30;58692;43.212;27.908;2022-07-04T08:14:02;30.76;45.98
71039;SHT30;58692;43.212;27.908;2022-07-04T08:16:27;31.23;44.56
71039;SHT30;58692;43.212;27.908;2022-07-04T08:18:53;30.15;46.21
71039;SHT30;58692;43.212;27.908;2022-07-04T08:21:18;30.31;45.70
71039;SHT30;58692;43.212;27.908;2022-07-04T08:23:44;30.83;45.14
71039;SHT30;58692;43.212;27.908;2022-07-04T08:26:10;32.12;42.58
71039;SHT30;58692;43.212;27.908;2022-07-04T08:28:35;31.90;42.50
71039;SHT30;58692;43.212;27.908;2022-07-04T08:31:01;31.44;39.87
71039;SHT30;58692;43.212;27.908;2022-07-04T08:33:26;31.33;41.11
71039;SHT30;58692;43.212;27.908;2022-07-04T08:35:52;32.61;38.54
71039;SHT30;58692;43.212;27.908;2022-07-04T08:38:19;33.03;37.17
71039;SHT30;58692;43.212;27.908;2022-07-04T08:40:46;33.25;35.97
71039;SHT30;58692;43.212;27.908;2022-07-04T08:43:13;34.31;32.31
71039;SHT30;58692;43.212;27.908;2022-07-04T08:45:40;34.31;26.16
71039;SHT30;58692;43.212;27.908;2022-07-04T08:48:08;33.54;29.14
71039;SHT30;58692;43.212;27.908;2022-07-04T08:50:37;34.16;28.74
71039;SHT30;58692;43.212;27.908;2022-07-04T08:53:07;34.20;25.48
71039;SHT30;58692;43.212;27.908;2022-07-04T08:55:35;33.91;24.92
71039;SHT30;58692;43.212;27.908;2022-07-04T08:58:16;33.93;27.28
71039;SHT30;58692;43.212;27.908;2022-07-04T09:01:00;35.00;27.52
71039;SHT30;58692;43.212;27.908;2022-07-04T09:03:27;34.97;27.80
71039;SHT30;58692;43.212;27.908;2022-07-04T09:05:53;34.57;27.35
71039;SHT30;58692;43.212;27.908;2022-07-04T09:08:19;34.94;24.75
71039;SHT30;58692;43.212;27.908;2022-07-04T09:10:46;34.06;20.41
71039;SHT30;58692;43.212;27.908;2022-07-04T09:13:12;34.42;16.76
71039;SHT30;58692;43.212;27.908;2022-07-04T09:15:41;34.98;19.42
71039;SHT30;58692;43.212;27.908;2022-07-04T09:18:25;34.60;20.03
71039;SHT30;58692;43.212;27.908;2022-07-04T09:20:55;34.98;23.73
71039;SHT30;58692;43.212;27.908;2022-07-04T09:23:24;35.57;21.19
71039;SHT30;58692;43.212;27.908;2022-07-04T09:26:10;34.47;18.41
71039;SHT30;58692;43.212;27.908;2022-07-04T09:28:38;35.76;18.68
71039;SHT30;58692;43.212;27.908;2022-07-04T09:31:20;35.19;21.02
71039;SHT30;58692;43.212;27.908;2022-07-04T09:33:48;34.79;21.84
71039;SHT30;58692;43.212;27.908;2022-07-04T09:36:16;34.53;25.86
71039;SHT30;58692;43.212;27.908;2022-07-04T09:39:08;33.66;26.93
71039;SHT30;58692;43.212;27.908;2022-07-04T09:41:57;34.17;24.41
71039;SHT30;58692;43.212;27.908;2022-07-04T09:44:26;33.41;32.44
71039;SHT30;58692;43.212;27.908;2022-07-04T09:46:51;33.59;33.15
71039;SHT30;58692;43.212;27.908;2022-07-04T09:49:18;33.28;34.49
71039;SHT30;58692;43.212;27.908;2022-07-04T09:51:51;33.38;33.91
71039;SHT30;58692;43.212;27.908;2022-07-04T09:54:18;33.51;32.52
71039;SHT30;58692;43.212;27.908;2022-07-04T09:56:46;32.61;35.35
71039;SHT30;58692;43.212;27.908;2022-07-04T09:59:12;32.74;36.77
71039;SHT30;58692;43.212;27.908;2022-07-04T10:01:38;32.37;34.10
71039;SHT30;58692;43.212;27.908;2022-07-04T10:04:05;33.10;35.54
71039;SHT30;58692;43.212;27.908;2022-07-04T10:06:32;32.50;33.78
71039;SHT30;58692;43.212;27.908;2022-07-04T10:09:15;33.17;31.86
71039;SHT30;58692;43.212;27.908;2022-07-04T10:11:42;32.39;30.01
71039;SHT30;58692;43.212;27.908;2022-07-04T10:14:09;32.66;32.89
71039;SHT30;58692;43.212;27.908;2022-07-04T10:16:36;32.80;32.00
71039;SHT30;58692;43.212;27.908;2022-07-04T10:19:04;32.67;35.09
71039;SHT30;58692;43.212;27.908;2022-07-04T10:21:35;32.77;29.00
71039;SHT30;58692;43.212;27.908;2022-07-04T10:24:03;32.92;29.41
71039;SHT30;58692;43.212;27.908;2022-07-04T10:26:30;32.52;31.30
71039;SHT30;58692;43.212;27.908;2022-07-04T10:28:56;32.55;31.04
71039;SHT30;58692;43.212;27.908;2022-07-04T10:31:24;33.04;31.62
71039;SHT30;58692;43.212;27.908;2022-07-04T10:33:51;33.01;33.81
71039;SHT30;58692;43.212;27.908;2022-07-04T10:36:19;33.25;33.84
71039;SHT30;58692;43.212;27.908;2022-07-04T10:38:50;32.96;34.53
71039;SHT30;58692;43.212;27.908;2022-07-04T10:41:18;32.83;33.09
71039;SHT30;58692;43.212;27.908;2022-07-04T10:43:56;32.20;37.47
71039;SHT30;58692;43.212;27.908;2022-07-04T10:46:26;32.26;36.06
71039;SHT30;58692;43.212;27.908;2022-07-04T10:54:04;32.02;39.25
71039;SHT30;58692;43.212;27.908;2022-07-04T10:58:55;32.52;35.04
71039;SHT30;58692;43.212;27.908;2022-07-04T11:01:23;32.15;30.02
71039;SHT30;58692;43.212;27.908;2022-07-04T11:03:50;32.61;36.47
71039;SHT30;58692;43.212;27.908;2022-07-04T11:09:20;33.24;32.42
71039;SHT30;58692;43.212;27.908;2022-07-04T11:12:02;32.39;32.87
71039;SHT30;58692;43.212;27.908;2022-07-04T11:14:47;33.17;30.89
71039;SHT30;58692;43.212;27.908;2022-07-04T11:17:20;33.57;33.47
71039;SHT30;58692;43.212;27.908;2022-07-04T11:19:46;32.15;35.45
71039;SHT30;58692;43.212;27.908;2022-07-04T11:22:22;31.98;39.54
71039;SHT30;58692;43.212;27.908;2022-07-04T11:24:48;32.10;39.80
71039;SHT30;58692;43.212;27.908;2022-07-04T11:27:14;32.32;39.58
71039;SHT30;58692;43.212;27.908;2022-07-04T11:29:49;31.65;39.76
71039;SHT30;58692;43.212;27.908;2022-07-04T11:32:16;31.71;39.72
71039;SHT30;58692;43.212;27.908;2022-07-04T11:34:41;31.72;39.65
71039;SHT30;58692;43.212;27.908;2022-07-04T11:37:18;31.98;39.03
71039;SHT30;58692;43.212;27.908;2022-07-04T11:39:50;31.81;39.93
71039;SHT30;58692;43.212;27.908;2022-07-04T11:42:16;32.20;38.84
71039;SHT30;58692;43.212;27.908;2022-07-04T11:45:00;31.59;39.47
71039;SHT30;58692;43.212;27.908;2022-07-04T11:47:39;32.02;38.89
71039;SHT30;58692;43.212;27.908;2022-07-04T11:52:43;32.18;35.96
71039;SHT30;58692;43.212;27.908;2022-07-04T11:55:14;32.16;35.42
71039;SHT30;58692;43.212;27.908;2022-07-04T11:57:42;31.45;36.53
71039;SHT30;58692;43.212;27.908;2022-07-04T12:00:12;31.33;36.51
71039;SHT30;58692;43.212;27.908;2022-07-04T12:02:38;31.42;37.01
71039;SHT30;58692;43.212;27.908;2022-07-04T12:05:06;30.67;38.38
71039;SHT30;58692;43.212;27.908;2022-07-04T12:10:54;29.97;40.07
71039;SHT30;58692;43.212;27.908;2022-07-04T12:13:20;29.10;41.73
71039;SHT30;58692;43.212;27.908;2022-07-04T12:15:48;29.06;41.32
71039;SHT30;58692;43.212;27.908;2022-07-04T12:21:16;28.01;44.09
71039;SHT30;58692;43.212;27.908;2022-07-04T12:23:55;27.77;44.51
71039;SHT30;58692;43.212;27.908;2022-07-04T12:26:20;27.63;44.87
71039;SHT30;58692;43.212;27.908;2022-07-04T12:28:46;27.81;45.27
71039;SHT30;58692;43.212;27.908;2022-07-04T12:31:12;27.76;43.71
71039;SHT30;58692;43.212;27.908;2022-07-04T12:33:37;27.68;44.04
71039;SHT30;58692;43.212;27.908;2022-07-04T12:36:04;27.68;45.16
71039;SHT30;58692;43.212;27.908;2022-07-04T12:38:36;27.65;46.27
71039;SHT30;58692;43.212;27.908;2022-07-04T12:43:48;27.67;46.39
71039;SHT30;58692;43.212;27.908;2022-07-04T12:46:31;27.49;46.29
71039;SHT30;58692;43.212;27.908;2022-07-04T12:48:58;27.54;46.43
71039;SHT30;58692;43.212;27.908;2022-07-04T12:51:29;27.47;46.65
71039;SHT30;58692;43.212;27.908;2022-07-04T12:53:56;27.24;47.21
71039;SHT30;58692;43.212;27.908;2022-07-04T12:56:38;27.55;46.60
71039;SHT30;58692;43.212;27.908;2022-07-04T12:59:07;27.46;45.72
71039;SHT30;58692;43.212;27.908;2022-07-04T13:01:34;27.76;45.75
71039;SHT30;58692;43.212;27.908;2022-07-04T13:04:01;27.17;45.76
71039;SHT30;58692;43.212;27.908;2022-07-04T13:06:27;27.27;45.58
71039;SHT30;58692;43.212;27.908;2022-07-04T13:08:53;27.14;45.69
71039;SHT30;58692;43.212;27.908;2022-07-04T13:11:19;27.37;45.78
71039;SHT30;58692;43.212;27.908;2022-07-04T13:14:00;27.44;45.61
71039;SHT30;58692;43.212;27.908;2022-07-04T13:16:26;27.13;46.16
71039;SHT30;58692;43.212;27.908;2022-07-04T13:18:52;27.09;46.88
71039;SHT30;58692;43.212;27.908;2022-07-04T13:21:17;27.46;45.97
71039;SHT30;58692;43.212;27.908;2022-07-04T13:23:43;27.42;46.05
71039;SHT30;58692;43.212;27.908;2022-07-04T13:26:08;27.17;45.51
71039;SHT30;58692;43.212;27.908;2022-07-04T13:28:34;27.40;46.23
71039;SHT30;58692;43.212;27.908;2022-07-04T13:31:00;27.51;45.09
71039;SHT30;58692;43.212;27.908;2022-07-04T13:33:27;27.43;44.96
71039;SHT30;58692;43.212;27.908;2022-07-04T13:35:53;27.40;45.28
71039;SHT30;58692;43.212;27.908;2022-07-04T13:38:19;27.23;46.24
71039;SHT30;58692;43.212;27.908;2022-07-04T13:40:45;27.40;46.40
71039;SHT30;58692;43.212;27.908;2022-07-04T13:43:11;27.26;46.45
71039;SHT30;58692;43.212;27.908;2022-07-04T13:45:38;27.13;46.88
71039;SHT30;58692;43.212;27.908;2022-07-04T13:48:06;26.92;46.37
71039;SHT30;58692;43.212;27.908;2022-07-04T13:50:32;26.71;47.13
71039;SHT30;58692;43.212;27.908;2022-07-04T13:53:01;26.81;46.98
71039;SHT30;58692;43.212;27.908;2022-07-04T13:55:26;26.85;47.17
71039;SHT30;58692;43.212;27.908;2022-07-04T13:57:52;27.19;46.60
71039;SHT30;58692;43.212;27.908;2022-07-04T14:00:17;26.99;46.66
71039;SHT30;58692;43.212;27.908;2022-07-04T14:02:43;27.07;46.83
71039;SHT30;58692;43.212;27.908;2022-07-04T14:05:08;27.00;46.85
71039;SHT30;58692;43.212;27.908;2022-07-04T14:07:36;26.92;47.45
71039;SHT30;58692;43.212;27.908;2022-07-04T14:10:01;26.76;48.02
71039;SHT30;58692;43.212;27.908;2022-07-04T14:12:27;27.04;47.79
71039;SHT30;58692;43.212;27.908;2022-07-04T14:14:53;26.96;47.00
71039;SHT30;58692;43.212;27.908;2022-07-04T14:17:18;27.00;47.07
71039;SHT30;58692;43.212;27.908;2022-07-04T14:19:44;26.86;45.76
71039;SHT30;58692;43.212;27.908;2022-07-04T14:22:10;26.83;46.52
71039;SHT30;58692;43.212;27.908;2022-07-04T14:24:35;26.91;46.76
71039;SHT30;58692;43.212;27.908;2022-07-04T14:27:01;27.07;46.07
71039;SHT30;58692;43.212;27.908;2022-07-04T14:29:26;27.24;45.70
71039;SHT30;58692;43.212;27.908;2022-07-04T14:31:52;27.14;46.11
71039;SHT30;58692;43.212;27.908;2022-07-04T14:34:18;27.12;46.90
71039;SHT30;58692;43.212;27.908;2022-07-04T14:36:43;26.85;48.33
71039;SHT30;58692;43.212;27.908;2022-07-04T14:39:10;26.81;46.41
71039;SHT30;58692;43.212;27.908;2022-07-04T14:41:35;26.92;46.85
71039;SHT30;58692;43.212;27.908;2022-07-04T14:44:01;26.92;47.52
71039;SHT30;58692;43.212;27.908;2022-07-04T14:46:27;26.93;47.71
71039;SHT30;58692;43.212;27.908;2022-07-04T14:48:53;26.67;47.56
71039;SHT30;58692;43.212;27.908;2022-07-04T14:51:21;26.53;47.29
71039;SHT30;58692;43.212;27.908;2022-07-04T14:53:46;26.56;47.01
71039;SHT30;58692;43.212;27.908;2022-07-04T14:56:12;26.59;46.58
71039;SHT30;58692;43.212;27.908;2022-07-04T14:58:38;26.71;46.92
71039;SHT30;58692;43.212;27.908;2022-07-04T15:01:03;26.58;46.60
71039;SHT30;58692;43.212;27.908;2022-07-04T15:03:29;26.59;44.94
71039;SHT30;58692;43.212;27.908;2022-07-04T15:05:55;26.58;47.98
71039;SHT30;58692;43.212;27.908;2022-07-04T15:08:20;26.85;47.94
71039;SHT30;58692;43.212;27.908;2022-07-04T15:10:46;26.95;48.16
71039;SHT30;58692;43.212;27.908;2022-07-04T15:13:11;26.92;48.84
71039;SHT30;58692;43.212;27.908;2022-07-04T15:15:38;26.75;47.31
71039;SHT30;58692;43.212;27.908;2022-07-04T15:18:04;26.72;47.83
71039;SHT30;58692;43.212;27.908;2022-07-04T15:20:29;26.72;47.44
71039;SHT30;58692;43.212;27.908;2022-07-04T15:23:10;26.56;47.94
71039;SHT30;58692;43.212;27.908;2022-07-04T15:25:51;26.63;47.79
71039;SHT30;58692;43.212;27.908;2022-07-04T15:28:16;26.61;48.07
71039;SHT30;58692;43.212;27.908;2022-07-04T15:30:42;26.47;46.35
71039;SHT30;58692;43.212;27.908;2022-07-04T15:33:08;26.35;47.08
71039;SHT30;58692;43.212;27.908;2022-07-04T15:35:41;26.45;48.96
71039;SHT30;58692;43.212;27.908;2022-07-04T15:38:08;26.27;48.79